Terminal Aerodrome Forecast
Issued by NWS

Current Version | Previous Version | Graphics & Text | Print | Product List | Glossary On
Versions: 1 2 3 4 5 6 7 8 9 10 11 12 13 14
000
FTUS41 KPBZ 190520
TAFMGW
TAF
KMGW 190520Z 1906/2006 00000KT P6SM SKC
     FM191500 24005KT P6SM BKN200
     FM192100 25008KT P6SM VCTS BKN040CB
      TEMPO 1922/1924 5SM -TSRA
     FM200100 29003KT P6SM SCT040=

USA.gov is the U.S. government's official web portal to all federal, state and local government web resources and services.